Time;durP1;ratioP1;P1;durP2;ratioP2;P2;SDS_P1;SDS_P2;PMS_P1;PMS_P2;Temp;Humidity;BMP_temperature;BMP_pressure;BME280_temperature;BME280_humidity;BME280_pressure;Samples;Min_cycle;Max_cycle;Signal;HPM_P1;HPM_P2
2024/01/14 00:00:53;;;;;;;51.20;23.90;;;;;;;-2.90;100.00;100600.72;109616;1240;61011;-75
2024/01/14 00:03:42;;;;;;;48.20;22.20;;;;;;;-2.95;100.00;100595.36;109800;1236;62542;-74
2024/01/14 00:06:11;;;;;;;52.60;23.10;;;;;;;-3.00;100.00;100585.75;109765;1238;75453;-74
2024/01/14 00:08:39;;;;;;;63.10;26.60;;;;;;;-3.12;100.00;100584.94;109843;1238;72379;-75
2024/01/14 00:11:12;;;;;;;72.60;30.40;;;;;;;-3.22;100.00;100581.03;109881;1238;69716;-74
2024/01/14 00:13:40;;;;;;;66.80;28.00;;;;;;;-3.30;100.00;100583.38;109839;1238;75108;-75
2024/01/14 00:16:09;;;;;;;79.70;32.10;;;;;;;-3.37;100.00;100577.88;109847;1239;59161;-75
2024/01/14 00:18:38;;;;;;;59.20;28.40;;;;;;;-3.45;100.00;100572.41;109860;1239;58630;-75
2024/01/14 00:21:08;;;;;;;56.50;28.90;;;;;;;-3.53;100.00;100573.39;109896;1238;73097;-74
2024/01/14 00:23:37;;;;;;;55.60;27.20;;;;;;;-3.60;100.00;100572.48;109865;1240;72557;-74
2024/01/14 00:26:07;;;;;;;62.00;29.60;;;;;;;-3.65;100.00;100568.64;109865;1238;69962;-75
2024/01/14 00:28:39;;;;;;;48.40;25.70;;;;;;;-3.71;100.00;100565.34;109678;1239;72182;-74
2024/01/14 00:31:14;;;;;;;46.50;25.00;;;;;;;-3.80;100.00;100562.08;109677;1239;61718;-74
2024/01/14 00:33:45;;;;;;;45.10;22.30;;;;;;;-3.89;100.00;100556.29;109869;1237;59394;-75
2024/01/14 00:36:16;;;;;;;47.10;25.00;;;;;;;-3.90;100.00;100557.15;109900;1239;74613;-75
2024/01/14 00:38:47;;;;;;;39.30;19.90;;;;;;;-3.96;100.00;100555.53;109810;1237;69842;-74
2024/01/14 00:41:20;;;;;;;32.90;18.90;;;;;;;-4.02;100.00;100553.92;110019;1238;69897;-74
2024/01/14 00:43:49;;;;;;;34.40;18.40;;;;;;;-4.10;100.00;100550.46;110036;1237;74357;-75
2024/01/14 00:46:17;;;;;;;35.70;19.30;;;;;;;-4.13;100.00;100546.94;110003;1239;60550;-75
2024/01/14 00:48:46;;;;;;;33.60;19.30;;;;;;;-4.15;100.00;100539.98;110046;1239;59355;-73
2024/01/14 00:51:15;;;;;;;35.10;18.30;;;;;;;-4.19;100.00;100540.91;110042;1239;71663;-74
2024/01/14 00:53:44;;;;;;;34.60;19.90;;;;;;;-4.24;100.00;100541.49;110048;1239;70322;-74
2024/01/14 00:56:13;;;;;;;35.20;19.70;;;;;;;-4.29;100.00;100539.85;110027;1236;67833;-75
2024/01/14 00:58:43;;;;;;;33.70;19.20;;;;;;;-4.33;100.00;100537.71;110022;1239;70975;-73
2024/01/14 01:01:12;;;;;;;34.40;20.10;;;;;;;-4.34;100.00;100536.69;109747;1241;61924;-74
2024/01/14 01:03:40;;;;;;;36.30;19.00;;;;;;;-4.39;100.00;100525.38;110016;1237;61560;-74
2024/01/14 01:06:09;;;;;;;35.20;19.30;;;;;;;-4.42;100.00;100525.77;110004;1237;74356;-74
2024/01/14 01:08:38;;;;;;;31.10;17.00;;;;;;;-4.46;100.00;100533.65;109990;1239;70979;-75
2024/01/14 01:11:07;;;;;;;31.00;17.50;;;;;;;-4.50;100.00;100535.56;110009;1239;68659;-74
2024/01/14 01:13:37;;;;;;;31.50;16.40;;;;;;;-4.51;100.00;100536.92;109849;1237;73808;-75
2024/01/14 01:16:06;;;;;;;31.80;17.60;;;;;;;-4.53;100.00;100528.46;109978;1239;63211;-75
2024/01/14 01:18:38;;;;;;;31.90;16.70;;;;;;;-4.60;100.00;100522.59;109841;1241;60492;-74
2024/01/14 01:21:10;;;;;;;28.80;16.00;;;;;;;-4.60;100.00;100521.73;110023;1238;74867;-74
2024/01/14 01:23:39;;;;;;;30.80;15.80;;;;;;;-4.60;100.00;100514.94;109749;1242;70905;-74
2024/01/14 01:26:08;;;;;;;27.70;14.90;;;;;;;-4.65;100.00;100506.86;109942;1238;69505;-75
2024/01/14 01:28:45;;;;;;;26.90;15.20;;;;;;;-4.65;100.00;100500.41;109837;1237;72361;-74
2024/01/14 01:31:20;;;;;;;28.50;15.90;;;;;;;-4.69;100.00;100492.48;109884;1239;62830;-75
2024/01/14 01:34:04;;;;;;;31.50;16.70;;;;;;;-4.80;100.00;100488.02;109700;1237;59852;-74
2024/01/14 01:36:33;;;;;;;30.20;16.30;;;;;;;-4.92;100.00;100484.95;109835;1239;73852;-74
2024/01/14 01:39:03;;;;;;;26.80;14.70;;;;;;;-5.02;100.00;100474.37;109877;1237;73033;-75
2024/01/14 01:41:43;;;;;;;25.60;14.20;;;;;;;-5.10;100.00;100462.59;109680;1243;70471;-75
2024/01/14 01:44:12;;;;;;;28.80;14.70;;;;;;;-5.16;100.00;100462.15;109779;1241;73150;-73
2024/01/14 01:46:41;;;;;;;26.50;15.00;;;;;;;-5.26;100.00;100455.98;109647;1239;63129;-74
2024/01/14 01:49:11;;;;;;;29.40;15.40;;;;;;;-5.33;100.00;100453.70;109565;1242;59470;-74
2024/01/14 01:51:44;;;;;;;29.10;15.00;;;;;;;-5.39;100.00;100444.25;109607;1236;72299;-74
2024/01/14 01:54:20;;;;;;;28.20;14.80;;;;;;;-5.48;100.00;100434.51;109936;1239;70426;-75
2024/01/14 01:56:51;;;;;;;28.60;15.50;;;;;;;-5.54;100.00;100432.89;109832;1241;68657;-74
2024/01/14 01:59:21;;;;;;;29.10;15.40;;;;;;;-5.59;100.00;100433.60;109824;1238;71933;-74
2024/01/14 02:01:51;;;;;;;32.20;16.30;;;;;;;-5.64;100.00;100435.52;109854;1240;60359;-75
2024/01/14 02:04:21;;;;;;;30.40;14.80;;;;;;;-5.67;100.00;100430.14;109797;1241;59415;-75
2024/01/14 02:06:51;;;;;;;31.20;15.30;;;;;;;-5.73;100.00;100424.27;109865;1238;70623;-75
2024/01/14 02:09:20;;;;;;;29.20;14.90;;;;;;;-5.82;100.00;100419.09;109748;1238;71543;-75
2024/01/14 02:11:49;;;;;;;26.20;15.10;;;;;;;-5.84;100.00;100421.31;109916;1237;68225;-75
2024/01/14 02:14:18;;;;;;;26.90;15.50;;;;;;;-5.87;100.00;100423.72;109749;1241;71003;-75
2024/01/14 02:16:47;;;;;;;29.30;15.80;;;;;;;-5.92;100.00;100418.38;109937;1238;61921;-74
2024/01/14 02:19:15;;;;;;;30.90;15.00;;;;;;;-5.96;100.00;100414.51;109915;1236;61038;-74
2024/01/14 02:22:18;;;;;;;27.70;14.90;;;;;;;-5.99;100.00;100408.27;109794;1237;73179;-74
2024/01/14 02:24:47;;;;;;;28.20;14.40;;;;;;;-6.09;100.00;100404.30;109768;1238;72514;-74
2024/01/14 02:27:15;;;;;;;30.20;15.20;;;;;;;-6.18;100.00;100405.05;109865;1236;70080;-74
2024/01/14 02:29:45;;;;;;;29.80;14.10;;;;;;;-6.22;100.00;100404.40;110122;1237;74695;-74
2024/01/14 02:32:14;;;;;;;32.40;17.30;;;;;;;-6.25;100.00;100400.19;109912;1241;62725;-75
2024/01/14 02:34:42;;;;;;;31.10;17.70;;;;;;;-6.29;100.00;100395.65;109918;1243;61011;-74
2024/01/14 02:37:11;;;;;;;32.70;16.00;;;;;;;-6.32;100.00;100397.04;109892;1239;73008;-74
2024/01/14 02:39:40;;;;;;;33.10;18.50;;;;;;;-6.43;100.00;100394.58;110106;1238;69592;-74
2024/01/14 02:42:09;;;;;;;36.40;18.50;;;;;;;-6.52;100.00;100396.36;110094;1237;70610;-74
2024/01/14 02:44:38;;;;;;;36.20;17.70;;;;;;;-6.54;100.00;100395.17;109875;1241;72943;-74
2024/01/14 02:47:07;;;;;;;31.10;16.20;;;;;;;-6.56;100.00;100391.97;109846;1240;62842;-75
2024/01/14 02:49:35;;;;;;;30.10;15.20;;;;;;;-6.60;100.00;100385.73;109956;1238;60607;-75
2024/01/14 02:52:04;;;;;;;29.70;14.90;;;;;;;-6.65;100.00;100376.63;109869;1238;72835;-75
2024/01/14 02:54:33;;;;;;;29.50;15.10;;;;;;;-6.73;100.00;100378.38;109889;1238;69191;-75
2024/01/14 02:57:02;;;;;;;29.40;14.10;;;;;;;-6.80;100.00;100394.34;109897;1237;69783;-75
2024/01/14 02:59:32;;;;;;;26.10;14.30;;;;;;;-6.84;100.00;100402.49;109824;1237;74844;-75
2024/01/14 03:02:01;;;;;;;35.10;16.20;;;;;;;-6.82;100.00;100399.59;109766;1239;61493;-75
2024/01/14 03:04:30;;;;;;;32.20;18.00;;;;;;;-6.80;100.00;100396.71;109908;1238;59485;-75
2024/01/14 03:06:59;;;;;;;31.00;15.60;;;;;;;-6.77;100.00;100390.59;109909;1238;74230;-75
2024/01/14 03:09:28;;;;;;;30.90;15.30;;;;;;;-6.75;100.00;100391.09;109718;1237;71755;-75
2024/01/14 03:11:56;;;;;;;30.80;15.60;;;;;;;-6.80;100.00;100396.70;109902;1236;70787;-74
2024/01/14 03:14:25;;;;;;;27.50;15.10;;;;;;;-6.75;100.00;100390.59;109894;1239;71416;-75
2024/01/14 03:16:54;;;;;;;28.50;15.00;;;;;;;-6.76;100.00;100379.58;109896;1239;61316;-75
2024/01/14 03:19:23;;;;;;;26.10;14.20;;;;;;;-6.78;100.00;100381.12;109940;1237;60358;-75
2024/01/14 03:21:53;;;;;;;27.10;14.30;;;;;;;-6.78;100.00;100375.86;109920;1237;74038;-75
2024/01/14 03:24:22;;;;;;;28.60;14.50;;;;;;;-6.78;100.00;100376.89;109948;1239;70499;-75
2024/01/14 03:26:51;;;;;;;30.10;14.00;;;;;;;-6.79;100.00;100368.09;109947;1238;70340;-75
2024/01/14 03:29:19;;;;;;;26.50;13.70;;;;;;;-6.90;100.00;100368.16;109873;1237;74241;-75
2024/01/14 03:31:48;;;;;;;31.60;16.30;;;;;;;-6.93;100.00;100369.53;110104;1239;59671;-75
2024/01/14 03:34:17;;;;;;;30.80;15.90;;;;;;;-6.92;100.00;100368.69;110147;1238;60089;-75
2024/01/14 03:36:46;;;;;;;26.80;11.80;;;;;;;-6.82;100.00;100365.21;110112;1237;73940;-74
2024/01/14 03:39:14;;;;;;;26.70;13.80;;;;;;;-6.77;100.00;100360.95;110126;1238;72176;-75
2024/01/14 03:41:44;;;;;;;26.70;13.70;;;;;;;-6.67;100.00;100356.14;110186;1238;67854;-74
2024/01/14 03:44:14;;;;;;;30.00;15.70;;;;;;;-6.60;100.00;100353.20;110168;1238;70834;-75
2024/01/14 03:46:44;;;;;;;34.20;17.20;;;;;;;-6.68;100.00;100354.11;110124;1238;62309;-75
2024/01/14 03:49:13;;;;;;;31.40;15.70;;;;;;;-6.57;100.00;100350.64;110157;1237;60016;-74
2024/01/14 03:51:42;;;;;;;34.10;15.80;;;;;;;-6.49;100.00;100345.33;110143;1236;73582;-74
2024/01/14 03:54:10;;;;;;;33.20;16.00;;;;;;;-6.42;100.00;100340.17;110129;1236;71351;-75
2024/01/14 03:56:39;;;;;;;36.10;17.30;;;;;;;-6.39;100.00;100337.61;109955;1236;68249;-74
2024/01/14 03:59:08;;;;;;;32.10;16.70;;;;;;;-6.37;100.00;100335.88;110124;1238;71959;-74
2024/01/14 04:01:37;;;;;;;31.70;17.10;;;;;;;-6.29;100.00;100331.59;109996;1238;62908;-74
2024/01/14 04:04:06;;;;;;;32.40;15.40;;;;;;;-6.25;100.00;100325.95;110101;1238;60897;-75
2024/01/14 04:06:35;;;;;;;30.50;16.00;;;;;;;-6.28;100.00;100315.30;110161;1238;74234;-74
2024/01/14 04:09:04;;;;;;;30.70;15.40;;;;;;;-6.25;100.00;100321.54;110145;1238;69597;-74
2024/01/14 04:11:33;;;;;;;32.00;16.10;;;;;;;-6.26;100.00;100323.42;110117;1238;69672;-74
2024/01/14 04:14:02;;;;;;;30.50;14.80;;;;;;;-6.28;100.00;100321.08;110129;1238;72412;-75
2024/01/14 04:16:41;;;;;;;28.60;14.90;;;;;;;-6.34;100.00;100318.23;110111;1238;60272;-72
2024/01/14 04:19:10;;;;;;;29.00;14.00;;;;;;;-6.38;100.00;100307.27;110140;1237;61011;-74
2024/01/14 04:21:38;;;;;;;25.90;12.50;;;;;;;-6.40;100.00;100306.44;110120;1235;74850;-74
2024/01/14 04:24:08;;;;;;;29.80;13.40;;;;;;;-5.95;100.00;100304.94;109971;1241;70041;-75
2024/01/14 04:26:36;;;;;;;25.30;12.20;;;;;;;-5.77;100.00;100307.42;110103;1237;70373;-74
2024/01/14 04:29:05;;;;;;;27.40;13.00;;;;;;;-5.43;100.00;100302.40;110163;1238;72398;-75
2024/01/14 04:31:34;;;;;;;25.50;12.70;;;;;;;-5.05;100.00;100295.75;110173;1237;61897;-74
2024/01/14 04:34:03;;;;;;;22.50;11.50;;;;;;;-4.62;100.00;100285.19;110141;1236;60492;-75
2024/01/14 04:36:32;;;;;;;25.90;12.10;;;;;;;-4.37;100.00;100276.78;110173;1237;73829;-75
2024/01/14 04:39:01;;;;;;;25.40;12.10;;;;;;;-4.12;100.00;100272.24;110139;1238;69585;-75
2024/01/14 04:41:30;;;;;;;24.60;12.10;;;;;;;-3.91;100.00;100273.53;110183;1236;67827;-75
2024/01/14 04:43:59;;;;;;;24.40;13.30;;;;;;;-3.89;100.00;100266.52;110170;1238;73337;-74
2024/01/14 04:46:27;;;;;;;27.00;14.20;;;;;;;-3.81;100.00;100266.85;110121;1237;60931;-74
2024/01/14 04:48:56;;;;;;;25.80;13.70;;;;;;;-3.86;100.00;100266.44;110188;1237;59595;-74
2024/01/14 04:51:25;;;;;;;30.30;15.20;;;;;;;-3.94;100.00;100269.67;110209;1236;72362;-74
2024/01/14 04:53:54;;;;;;;27.70;14.20;;;;;;;-4.01;100.00;100268.79;110173;1238;70396;-73
2024/01/14 04:56:25;;;;;;;29.30;14.70;;;;;;;-4.14;100.00;100267.52;110171;1237;67737;-75
2024/01/14 04:58:54;;;;;;;32.60;14.10;;;;;;;-4.28;100.00;100262.84;110152;1238;72339;-75
2024/01/14 05:01:23;;;;;;;27.50;13.70;;;;;;;-4.40;100.00;100264.27;110111;1235;63761;-74
2024/01/14 05:03:51;;;;;;;30.00;14.40;;;;;;;-4.52;100.00;100265.83;110139;1236;61599;-75
2024/01/14 05:06:20;;;;;;;28.40;15.40;;;;;;;-4.65;100.00;100257.39;110144;1237;74708;-75
2024/01/14 05:08:49;;;;;;;30.40;15.00;;;;;;;-4.77;100.00;100254.05;110153;1237;70889;-74
2024/01/14 05:11:18;;;;;;;30.70;15.10;;;;;;;-4.86;100.00;100249.43;110171;1236;67898;-75
2024/01/14 05:13:48;;;;;;;29.90;15.00;;;;;;;-4.90;100.00;100245.77;110168;1235;70916;-75
2024/01/14 05:16:17;;;;;;;31.50;15.00;;;;;;;-4.89;100.00;100244.89;110135;1238;60849;-75
2024/01/14 05:18:46;;;;;;;32.20;15.60;;;;;;;-4.90;100.00;100241.84;110161;1238;61523;-74
2024/01/14 05:21:16;;;;;;;33.40;14.70;;;;;;;-4.93;100.00;100241.90;110153;1237;75042;-75
2024/01/14 05:23:45;;;;;;;30.50;15.20;;;;;;;-4.90;100.00;100240.65;110160;1236;70169;-74
2024/01/14 05:26:13;;;;;;;32.10;14.80;;;;;;;-4.93;100.00;100236.46;110166;1239;69343;-74
2024/01/14 05:28:45;;;;;;;29.80;14.20;;;;;;;-4.99;100.00;100237.25;110165;1237;74243;-74
2024/01/14 05:31:14;;;;;;;30.40;15.30;;;;;;;-5.03;100.00;100234.59;110149;1236;63431;-73
2024/01/14 05:33:43;;;;;;;32.80;15.20;;;;;;;-5.07;100.00;100227.69;110171;1238;60537;-76
2024/01/14 05:36:12;;;;;;;31.40;15.30;;;;;;;-5.14;100.00;100227.45;110183;1237;70901;-75
2024/01/14 05:38:42;;;;;;;28.50;15.20;;;;;;;-5.18;100.00;100225.13;110161;1237;69574;-74
2024/01/14 05:41:14;;;;;;;33.30;16.60;;;;;;;-5.22;100.00;100229.12;110036;1238;70506;-75
2024/01/14 05:43:44;;;;;;;32.90;15.90;;;;;;;-5.25;100.00;100228.32;110161;1236;73345;-74
2024/01/14 05:46:16;;;;;;;33.50;16.80;;;;;;;-5.31;100.00;100225.84;110179;1238;61475;-75
2024/01/14 05:48:47;;;;;;;32.10;16.20;;;;;;;-5.35;100.00;100221.34;110132;1238;60987;-74
2024/01/14 05:51:16;;;;;;;32.00;15.60;;;;;;;-5.42;100.00;100219.23;110120;1238;74630;-75
2024/01/14 05:53:45;;;;;;;31.70;15.50;;;;;;;-5.38;100.00;100215.61;110120;1238;71410;-74
2024/01/14 05:56:26;;;;;;;39.90;17.70;;;;;;;-5.36;100.00;100220.00;110110;1236;68514;-75
2024/01/14 05:58:56;;;;;;;34.00;17.20;;;;;;;-5.34;100.00;100217.75;110077;1237;71877;-75
2024/01/14 06:01:24;;;;;;;33.60;16.40;;;;;;;-5.34;100.00;100225.22;109952;1240;62135;-74
2024/01/14 06:03:53;;;;;;;30.30;16.10;;;;;;;-5.36;100.00;100221.34;110092;1237;60262;-74
2024/01/14 06:06:22;;;;;;;34.30;16.10;;;;;;;-5.37;100.00;100220.85;110068;1236;72823;-75
2024/01/14 06:08:51;;;;;;;31.20;16.50;;;;;;;-5.38;100.00;100217.14;109765;1237;69548;-75
2024/01/14 06:11:20;;;;;;;31.50;17.30;;;;;;;-5.42;100.00;100214.99;109998;1236;67640;-75
2024/01/14 06:13:49;;;;;;;33.80;17.10;;;;;;;-5.45;100.00;100212.31;109988;1236;71882;-76
2024/01/14 06:16:18;;;;;;;35.60;17.30;;;;;;;-5.47;100.00;100213.19;109941;1238;61611;-75
2024/01/14 06:18:46;;;;;;;38.60;17.10;;;;;;;-5.47;100.00;100209.46;109964;1237;61538;-74
2024/01/14 06:21:15;;;;;;;34.30;16.90;;;;;;;-5.46;100.00;100207.73;109980;1237;74792;-75
2024/01/14 06:23:44;;;;;;;35.10;16.80;;;;;;;-5.45;100.00;100206.02;109956;1236;72471;-74
2024/01/14 06:26:17;;;;;;;36.40;17.70;;;;;;;-5.45;100.00;100205.17;109926;1236;68614;-74
2024/01/14 06:28:46;;;;;;;37.20;17.60;;;;;;;-5.40;100.00;100209.70;109901;1236;71978;-75
2024/01/14 06:31:18;;;;;;;39.20;21.10;;;;;;;-5.41;100.00;100204.62;109927;1238;61890;-75
2024/01/14 06:33:47;;;;;;;45.70;22.20;;;;;;;-5.45;100.00;100206.88;109930;1237;61710;-74
2024/01/14 06:36:19;;;;;;;42.70;20.30;;;;;;;-5.47;100.00;100204.36;109928;1238;73144;-74
2024/01/14 06:38:48;;;;;;;38.00;19.40;;;;;;;-5.47;100.00;100212.17;109979;1236;71470;-74
2024/01/14 06:41:23;;;;;;;40.30;20.00;;;;;;;-5.48;100.00;100214.57;109945;1237;70615;-75
2024/01/14 06:43:52;;;;;;;45.90;25.70;;;;;;;-5.54;100.00;100210.06;109852;1238;70645;-75
2024/01/14 06:46:28;;;;;;;43.40;25.00;;;;;;;-5.87;100.00;100205.80;109981;1239;60771;-74
2024/01/14 06:49:07;;;;;;;47.10;28.50;;;;;;;-5.88;100.00;100209.20;110082;1235;58849;-74
2024/01/14 06:51:58;;;;;;;46.90;23.20;;;;;;;-6.00;100.00;100211.06;109988;1237;73150;-75
2024/01/14 06:54:32;;;;;;;44.60;23.60;;;;;;;-5.95;100.00;100211.02;110064;1238;70123;-75
2024/01/14 06:57:03;;;;;;;51.70;27.20;;;;;;;-5.97;100.00;100210.70;110107;1237;68140;-75
2024/01/14 06:59:42;;;;;;;59.40;30.80;;;;;;;-5.88;100.00;100219.36;110034;1237;73433;-73
2024/01/14 07:02:17;;;;;;;50.10;24.60;;;;;;;-5.76;100.00;100217.84;109960;1238;192197;-76
2024/01/14 07:04:46;;;;;;;52.10;25.70;;;;;;;-5.75;100.00;100207.98;110106;1238;58635;-74
2024/01/14 07:07:18;;;;;;;46.00;24.50;;;;;;;-5.65;100.00;100198.88;110091;1238;72446;-77
2024/01/14 07:09:49;;;;;;;48.90;24.80;;;;;;;-5.50;100.00;100193.23;110117;1236;70233;-75
2024/01/14 07:12:18;;;;;;;52.30;25.70;;;;;;;-5.36;100.00;100191.64;110077;1237;68985;-75
2024/01/14 07:14:52;;;;;;;54.40;28.30;;;;;;;-5.31;100.00;100191.56;110070;1237;74639;-74
2024/01/14 07:17:21;;;;;;;45.80;23.10;;;;;;;-5.33;100.00;100186.51;110070;1238;62048;-76
2024/01/14 07:20:01;;;;;;;51.40;25.90;;;;;;;-5.37;100.00;100190.65;110139;1238;59434;-75
2024/01/14 07:22:53;;;;;;;46.40;26.20;;;;;;;-5.25;100.00;100187.91;110021;1238;72420;-74
2024/01/14 07:26:11;;;;;;;48.60;24.50;;;;;;;-5.11;100.00;100187.34;109955;1237;71924;-76
2024/01/14 07:28:47;;;;;;;53.60;26.80;;;;;;;-4.94;100.00;100186.02;110079;1239;68678;-74
2024/01/14 07:31:20;;;;;;;46.70;25.30;;;;;;;-4.97;100.00;100184.90;109874;1237;74961;-75
2024/01/14 07:34:08;;;;;;;48.70;24.80;;;;;;;-4.81;100.00;100187.84;110135;1236;61562;-74
2024/01/14 07:36:47;;;;;;;50.60;26.10;;;;;;;-4.59;100.00;100185.56;110074;1238;58679;-75
2024/01/14 07:39:22;;;;;;;47.10;23.60;;;;;;;-4.58;100.00;100185.38;110077;1238;72343;-76
2024/01/14 07:41:51;;;;;;;47.20;23.70;;;;;;;-4.38;100.00;100181.95;110077;1237;69812;-74
2024/01/14 07:44:26;;;;;;;49.20;24.60;;;;;;;-4.35;100.00;100180.52;109958;1237;71540;-75
2024/01/14 07:46:55;;;;;;;47.10;23.90;;;;;;;-4.19;100.00;100174.25;110077;1239;73018;-74
2024/01/14 07:49:29;;;;;;;40.20;20.50;;;;;;;-4.06;100.00;100174.30;110235;1238;60323;-75
2024/01/14 07:52:06;;;;;;;43.60;21.70;;;;;;;-3.83;100.00;100168.89;110125;1238;61719;-75
2024/01/14 07:54:35;;;;;;;44.40;22.60;;;;;;;-3.69;100.00;100168.08;110281;1236;74799;-74
2024/01/14 07:57:07;;;;;;;44.60;22.90;;;;;;;-3.53;100.00;100169.55;110189;1238;71285;-74
2024/01/14 07:59:37;;;;;;;45.20;22.90;;;;;;;-3.30;100.00;100169.55;110144;1236;71122;-75
2024/01/14 08:02:10;;;;;;;42.20;22.00;;;;;;;-3.24;100.00;100164.29;109957;1237;72537;-75
2024/01/14 08:04:39;;;;;;;42.90;21.70;;;;;;;-3.26;100.00;100165.19;110075;1238;62511;-74
2024/01/14 08:07:07;;;;;;;44.00;23.00;;;;;;;-3.33;100.00;100161.45;110113;1237;61622;-75
2024/01/14 08:09:46;;;;;;;42.80;22.30;;;;;;;-3.22;100.00;100163.55;110113;1236;75399;-74
2024/01/14 08:12:22;;;;;;;38.40;21.80;;;;;;;-3.03;100.00;100158.84;110128;1237;72473;-75
2024/01/14 08:14:54;;;;;;;44.50;23.50;;;;;;;-3.00;100.00;100156.36;110244;1236;68912;-76
2024/01/14 08:17:24;;;;;;;47.40;24.70;;;;;;;-2.76;100.00;100154.38;109896;1236;72340;-77
2024/01/14 08:19:56;;;;;;;59.50;29.70;;;;;;;-2.57;100.00;100154.04;110127;1239;59434;-76
2024/01/14 08:22:34;;;;;;;48.90;23.80;;;;;;;-2.53;100.00;100156.64;110244;1238;59485;-75
2024/01/14 08:25:04;;;;;;;46.50;23.90;;;;;;;-2.52;100.00;100154.23;110253;1238;71968;-75
2024/01/14 08:27:40;;;;;;;44.80;22.00;;;;;;;-2.47;100.00;100156.14;110295;1237;72130;-76
2024/01/14 08:30:12;;;;;;;48.70;24.70;;;;;;;-2.34;100.00;100151.34;109930;1237;68997;-76
2024/01/14 08:32:48;;;;;;;53.10;25.80;;;;;;;-2.31;100.00;100147.50;109969;1237;72232;-74
2024/01/14 08:35:24;;;;;;;49.10;24.60;;;;;;;-2.22;100.00;100144.70;110274;1235;59394;-75
2024/01/14 08:37:59;;;;;;;49.10;24.20;;;;;;;-2.22;100.00;100144.88;110059;1237;61150;-75
2024/01/14 08:40:30;;;;;;;49.80;24.00;;;;;;;-2.26;100.00;100140.87;110178;1238;75088;-74
2024/01/14 08:43:03;;;;;;;41.50;22.30;;;;;;;-1.95;100.00;100144.76;110009;1236;71317;-76
2024/01/14 08:45:44;;;;;;;48.20;25.70;;;;;;;-1.82;100.00;100141.45;109967;1235;69902;-76
2024/01/14 08:48:13;;;;;;;41.00;23.10;;;;;;;-1.71;100.00;100140.10;109937;1238;71041;-76
2024/01/14 08:50:43;;;;;;;48.90;25.50;;;;;;;-1.74;100.00;100138.67;110065;1238;59646;-75
2024/01/14 08:53:15;;;;;;;49.40;25.20;;;;;;;-1.77;100.00;100130.73;110082;1236;60552;-75
2024/01/14 08:55:49;;;;;;;42.60;23.50;;;;;;;-1.73;100.00;100121.23;109917;1238;74124;-76
2024/01/14 08:58:23;;;;;;;51.50;26.30;;;;;;;-1.87;100.00;100124.20;110107;1238;70872;-75
2024/01/14 09:00:54;;;;;;;50.50;26.70;;;;;;;-2.21;100.00;100120.61;109851;1240;69804;-76
2024/01/14 09:03:28;;;;;;;51.10;26.80;;;;;;;-2.41;100.00;100119.99;110079;1237;72309;-75
2024/01/14 09:05:58;;;;;;;46.50;24.70;;;;;;;-2.55;100.00;100117.99;109991;1238;58960;-74
2024/01/14 09:08:30;;;;;;;44.20;24.20;;;;;;;-2.56;100.00;100112.39;110128;1237;60177;-76
2024/01/14 09:11:15;;;;;;;46.80;22.80;;;;;;;-2.70;100.00;100104.42;109778;1237;73965;-74
2024/01/14 09:13:54;;;;;;;46.70;23.50;;;;;;;-2.66;100.00;100107.74;109956;1236;72806;-75
2024/01/14 09:16:24;;;;;;;43.10;23.50;;;;;;;-2.63;100.00;100101.85;110049;1236;69951;-75
2024/01/14 09:18:54;;;;;;;41.10;22.60;;;;;;;-2.51;100.00;100101.69;109956;1237;73920;-75
2024/01/14 09:21:25;;;;;;;42.50;22.80;;;;;;;-2.54;100.00;100097.17;110037;1238;64005;-75
2024/01/14 09:23:54;;;;;;;48.20;26.60;;;;;;;-2.45;100.00;100095.89;110057;1236;60713;-75
2024/01/14 09:26:26;;;;;;;45.90;24.80;;;;;;;-2.27;100.00;100097.09;109963;1238;72812;-75
2024/01/14 09:28:55;;;;;;;49.70;24.80;;;;;;;-2.12;100.00;100092.18;109975;1238;70726;-75
2024/01/14 09:31:24;;;;;;;46.50;24.00;;;;;;;-2.07;100.00;100091.20;110121;1236;70736;-74
2024/01/14 09:33:54;;;;;;;43.30;24.90;;;;;;;-2.07;100.00;100085.38;110102;1238;74069;-73
2024/01/14 09:36:23;;;;;;;51.40;25.90;;;;;;;-2.17;100.00;100084.83;110144;1238;59967;-76
2024/01/14 09:38:53;;;;;;;46.10;25.50;;;;;;;-2.28;100.00;100086.20;110143;1235;59222;-73
2024/01/14 09:41:42;;;;;;;44.60;24.80;;;;;;;-2.30;100.00;100083.36;110023;1239;70804;-76
2024/01/14 09:44:17;;;;;;;49.50;25.10;;;;;;;-2.13;100.00;100083.17;110124;1235;71945;-73
2024/01/14 09:46:47;;;;;;;51.80;26.80;;;;;;;-1.87;100.00;100076.05;109728;1236;70214;-74
2024/01/14 09:49:17;;;;;;;49.40;27.10;;;;;;;-1.92;100.00;100080.30;109936;1237;72876;-75
2024/01/14 09:51:48;;;;;;;53.30;28.30;;;;;;;-1.92;100.00;100075.02;109925;1238;59082;-75
2024/01/14 09:54:17;;;;;;;47.70;25.80;;;;;;;-1.69;100.00;100070.02;110060;1238;59674;-75
2024/01/14 09:56:48;;;;;;;52.80;28.00;;;;;;;-1.80;100.00;100070.02;109811;1240;71610;-74
2024/01/14 09:59:17;;;;;;;57.80;32.80;;;;;;;-1.89;100.00;100067.27;109964;1238;69881;-76
2024/01/14 10:01:49;;;;;;;57.90;31.20;;;;;;;-1.96;100.00;100067.46;109946;1239;68070;-74
2024/01/14 10:04:20;;;;;;;54.60;29.20;;;;;;;-1.84;100.00;100062.15;109922;1237;73073;-74
2024/01/14 10:06:49;;;;;;;57.20;29.80;;;;;;;-1.70;100.00;100062.19;109862;1239;60539;-75
2024/01/14 10:09:19;;;;;;;50.20;29.50;;;;;;;-1.68;100.00;100055.81;109938;1239;60674;-76
2024/01/14 10:11:51;;;;;;;51.60;27.70;;;;;;;-1.69;100.00;100051.42;109830;1236;74506;-76
2024/01/14 10:14:27;;;;;;;54.70;28.40;;;;;;;-1.30;100.00;100048.92;109626;1244;72120;-75
2024/01/14 10:17:00;;;;;;;55.30;30.50;;;;;;;-1.05;100.00;100045.33;109845;1241;67854;-74
2024/01/14 10:19:32;;;;;;;62.10;31.90;;;;;;;-1.01;100.00;100036.31;109924;1237;73847;-78
2024/01/14 10:22:02;;;;;;;55.60;28.70;;;;;;;-0.84;100.00;100028.48;110022;1239;59976;-74
2024/01/14 10:25:01;;;;;;;55.90;30.00;;;;;;;-0.78;100.00;100022.46;109983;1236;61697;-75
2024/01/14 10:27:51;;;;;;;58.50;29.00;;;;;;;-0.50;100.00;100019.21;109950;1236;74888;-75
2024/01/14 10:30:41;;;;;;;56.90;28.70;;;;;;;-0.27;100.00;100019.00;109735;1236;72364;-76
2024/01/14 10:33:16;;;;;;;52.40;28.30;;;;;;;0.05;100.00;100014.50;109770;1237;70293;-76
2024/01/14 10:36:05;;;;;;;54.70;30.20;;;;;;;-0.08;100.00;100006.96;109841;1239;73517;-77
2024/01/14 10:38:36;;;;;;;55.10;29.90;;;;;;;-0.33;100.00;99999.05;109844;1241;60900;-75
2024/01/14 10:41:05;;;;;;;49.70;27.70;;;;;;;-0.24;100.00;99995.11;109929;1239;60427;-75
2024/01/14 10:43:34;;;;;;;51.80;28.80;;;;;;;-0.40;100.00;99990.42;109836;1238;74563;-75
2024/01/14 10:46:05;;;;;;;51.60;26.90;;;;;;;-0.35;100.00;99987.84;109824;1235;73408;-75
2024/01/14 10:48:40;;;;;;;50.50;29.00;;;;;;;-0.26;100.00;99985.42;109908;1237;70840;-76
2024/01/14 10:51:11;;;;;;;56.00;28.90;;;;;;;-0.00;100.00;99977.89;109927;1238;72099;-75
2024/01/14 10:54:04;;;;;;;48.40;27.70;;;;;;;0.06;100.00;99975.59;109920;1238;59331;-76
2024/01/14 10:56:39;;;;;;;54.60;29.30;;;;;;;0.14;100.00;99975.29;109971;1236;59699;-77
2024/01/14 10:59:13;;;;;;;48.10;28.70;;;;;;;0.07;100.00;99970.60;110012;1238;72264;-77
2024/01/14 11:01:53;;;;;;;51.00;27.80;;;;;;;-0.08;100.00;99965.02;109827;1238;71481;-76
2024/01/14 11:04:22;;;;;;;51.70;28.10;;;;;;;0.22;100.00;99960.89;109996;1237;69034;-75
2024/01/14 11:06:55;;;;;;;54.60;28.20;;;;;;;0.74;100.00;99955.05;109905;1238;70799;-75
2024/01/14 11:09:24;;;;;;;55.20;28.40;;;;;;;1.12;100.00;99953.05;109815;1238;59025;-77
2024/01/14 11:12:03;;;;;;;51.60;28.30;;;;;;;0.98;100.00;99947.67;109916;1237;61087;-78
2024/01/14 11:14:45;;;;;;;51.90;29.30;;;;;;;0.81;100.00;99945.69;109900;1237;72609;-79